createdAt,value
2023-05-01T00:19:32.692Z,36.12
2023-05-01T00:39:32.683Z,36.08
2023-05-01T00:59:32.398Z,36.08
2023-05-01T01:19:32.665Z,36.09
2023-05-01T01:39:32.651Z,36.09
2023-05-01T02:19:32.367Z,36.1
2023-05-01T02:39:31.974Z,36.08
2023-05-01T02:59:32.612Z,36.08
2023-05-01T03:19:32.612Z,36.08
2023-05-01T03:59:32.568Z,36.08
2023-05-01T04:19:32.555Z,36.07
2023-05-01T04:39:32.540Z,36.07
2023-05-01T04:59:32.522Z,36.06
2023-05-01T05:19:32.506Z,36.06
2023-05-01T05:39:32.483Z,36.06
2023-05-01T09:19:32.211Z,35.89
2023-05-01T11:19:32.050Z,35.7
2023-05-01T11:59:31.980Z,35.63
2023-05-01T13:19:31.831Z,35.49
2023-05-01T14:39:31.710Z,35.37
2023-05-01T14:59:31.726Z,35.36
2023-05-01T15:19:31.712Z,35.37
2023-05-01T15:39:31.643Z,35.36
2023-05-01T16:19:31.574Z,35.36
2023-05-01T16:39:31.588Z,35.38
2023-05-01T16:59:31.259Z,35.39
2023-05-01T17:19:31.506Z,35.4
2023-05-01T17:39:31.491Z,35.85
2023-05-01T17:59:31.175Z,35.52
2023-05-01T18:19:31.412Z,35.68
2023-05-01T18:39:31.416Z,35.51
2023-05-01T18:59:31.380Z,35.54
2023-05-01T19:19:31.077Z,35.57
2023-05-01T19:39:31.351Z,35.61
2023-05-01T19:59:31.316Z,35.64
2023-05-01T20:19:31.355Z,35.68
2023-05-01T20:39:31.283Z,35.72
2023-05-01T20:59:31.307Z,35.77
2023-05-01T21:19:31.227Z,35.8
2023-05-01T21:39:31.211Z,35.82
2023-05-01T21:59:30.549Z,35.83
2023-05-01T22:19:31.202Z,35.86
2023-05-01T22:39:31.156Z,35.88
2023-05-01T22:59:31.129Z,35.9
2023-05-01T23:19:31.117Z,35.93
2023-05-01T23:39:31.082Z,35.95
2023-05-01T23:59:31.081Z,35.97
